Time;durP1;ratioP1;P1;durP2;ratioP2;P2;SDS_P1;SDS_P2;PMS_P1;PMS_P2;Temp;Humidity;BMP_temperature;BMP_pressure;BME280_temperature;BME280_humidity;BME280_pressure;Samples;Min_cycle;Max_cycle;Signal;HPM_P1;HPM_P2
2022/03/23 00:00:43;;;;;;;14.07;8.38;;;;;;;6.60;72.49;101356.41;5071541;28;20020;-71
2022/03/23 00:03:10;;;;;;;18.75;8.77;;;;;;;6.51;71.69;101358.97;5090259;28;20027;-70
2022/03/23 00:05:39;;;;;;;13.40;7.57;;;;;;;6.63;71.06;101362.59;5106892;28;20055;-70
2022/03/23 00:08:04;;;;;;;16.40;8.88;;;;;;;6.63;71.58;101353.75;5110698;28;20035;-70
2022/03/23 00:10:30;;;;;;;16.48;8.48;;;;;;;6.62;71.72;101344.06;5109857;28;20024;-70
2022/03/23 00:12:57;;;;;;;15.35;8.07;;;;;;;6.63;71.82;101364.34;5107012;28;20107;-70
2022/03/23 00:15:23;;;;;;;15.13;7.90;;;;;;;6.56;72.21;101359.88;5110550;28;20094;-70
2022/03/23 00:17:48;;;;;;;12.55;7.68;;;;;;;6.44;71.89;101362.50;5106705;28;20023;-70
2022/03/23 00:20:15;;;;;;;15.80;7.55;;;;;;;6.39;73.57;101359.78;5110144;28;20058;-70
2022/03/23 00:22:40;;;;;;;13.23;7.55;;;;;;;6.37;73.62;101372.16;5110639;28;20019;-70
2022/03/23 00:25:08;;;;;;;10.73;6.95;;;;;;;6.43;74.45;101364.25;5112690;28;20030;-70
2022/03/23 00:27:34;;;;;;;14.85;8.23;;;;;;;6.50;74.73;101365.16;5107950;28;20054;-70
2022/03/23 00:30:00;;;;;;;13.15;7.53;;;;;;;6.44;74.81;101354.56;5110760;28;20023;-70
2022/03/23 00:32:26;;;;;;;18.42;8.77;;;;;;;6.43;74.46;101355.41;5114155;28;20490;-70
2022/03/23 00:34:51;;;;;;;15.75;8.95;;;;;;;6.40;74.12;101363.34;5114578;28;20120;-70
2022/03/23 00:37:17;;;;;;;16.73;9.10;;;;;;;6.30;74.88;101359.75;5113961;28;20030;-70
2022/03/23 00:39:43;;;;;;;19.30;8.85;;;;;;;6.31;74.71;101365.94;5113928;28;20027;-70
2022/03/23 00:42:08;;;;;;;19.85;9.80;;;;;;;6.32;74.79;101372.97;5113760;28;20031;-70
2022/03/23 00:44:34;;;;;;;14.77;7.65;;;;;;;6.26;74.50;101365.03;5113583;28;20034;-70
2022/03/23 00:46:59;;;;;;;14.63;8.20;;;;;;;6.12;75.18;101372.84;5113690;28;20060;-70
2022/03/23 00:49:25;;;;;;;17.83;7.55;;;;;;;5.86;75.86;101339.19;5113870;28;20024;-70
2022/03/23 00:51:53;;;;;;;14.52;7.50;;;;;;;5.86;76.34;101368.25;5113811;28;20067;-70
2022/03/23 00:54:20;;;;;;;15.98;7.57;;;;;;;5.83;76.42;101365.59;5113932;28;20023;-70
2022/03/23 00:56:46;;;;;;;18.27;9.07;;;;;;;5.88;77.00;101369.16;5109984;28;20050;-70
2022/03/23 00:59:13;;;;;;;20.10;8.98;;;;;;;6.02;77.00;101371.00;5093449;28;20425;-70
2022/03/23 01:01:39;;;;;;;15.18;8.18;;;;;;;6.10;76.31;101368.41;5093338;28;20026;-70
2022/03/23 01:04:05;;;;;;;13.68;7.80;;;;;;;6.11;75.47;101365.78;5093463;28;20028;-70
2022/03/23 01:06:31;;;;;;;14.45;8.13;;;;;;;5.97;75.85;101377.13;5075029;28;20114;-70
2022/03/23 01:08:57;;;;;;;19.33;8.43;;;;;;;5.97;76.03;101371.84;5092989;28;20512;-70
2022/03/23 01:11:22;;;;;;;18.58;8.77;;;;;;;5.93;76.24;101354.22;5092866;28;20028;-70
2022/03/23 01:13:48;;;;;;;14.90;9.07;;;;;;;5.98;76.17;101371.84;5093088;28;20024;-70
2022/03/23 01:16:13;;;;;;;15.75;8.77;;;;;;;5.91;75.92;101379.72;5076070;28;20402;-70
2022/03/23 01:18:39;;;;;;;19.05;9.23;;;;;;;5.88;76.47;101382.34;5113502;28;20085;-70
2022/03/23 01:21:04;;;;;;;18.70;9.60;;;;;;;5.81;76.34;101377.84;5112937;28;20400;-70
2022/03/23 01:23:29;;;;;;;17.27;8.63;;;;;;;5.77;76.49;101374.28;5112051;28;20016;-70
2022/03/23 01:25:55;;;;;;;19.30;9.25;;;;;;;5.88;75.92;101375.28;5110744;28;20106;-70
2022/03/23 01:28:21;;;;;;;20.95;8.75;;;;;;;5.77;75.81;101355.81;5096154;28;20020;-70
2022/03/23 01:30:46;;;;;;;17.15;9.52;;;;;;;5.82;76.25;101372.59;5092659;28;20542;-70
2022/03/23 01:33:12;;;;;;;12.95;8.27;;;;;;;5.59;76.91;101357.41;5092831;28;20032;-70
2022/03/23 01:35:37;;;;;;;15.50;8.38;;;;;;;5.62;77.03;101374.16;5090551;28;20028;-70
2022/03/23 01:38:02;;;;;;;16.17;8.43;;;;;;;5.54;76.69;101345.91;5092444;28;20035;-70
2022/03/23 01:40:28;;;;;;;19.67;9.48;;;;;;;5.65;76.77;101368.03;5092347;28;20471;-70
2022/03/23 01:42:54;;;;;;;16.63;9.65;;;;;;;5.61;76.72;101376.78;5092531;28;20387;-70
2022/03/23 01:45:20;;;;;;;16.73;8.98;;;;;;;5.71;77.41;101370.72;5092699;28;20031;-70
2022/03/23 01:47:45;;;;;;;18.05;9.23;;;;;;;5.67;77.82;101372.44;5092238;28;20099;-70
2022/03/23 01:50:11;;;;;;;17.10;9.88;;;;;;;5.61;77.44;101382.97;5095095;28;20107;-70
2022/03/23 01:52:38;;;;;;;18.90;10.20;;;;;;;5.54;78.08;101374.94;5073821;28;20035;-70
2022/03/23 01:55:13;;;;;;;18.33;9.05;;;;;;;5.53;77.90;101381.13;5073980;28;20028;-70
2022/03/23 01:57:42;;;;;;;17.35;7.93;;;;;;;5.39;77.91;101378.34;5094280;28;20027;-70
2022/03/23 02:00:08;;;;;;;15.68;8.57;;;;;;;5.35;77.62;101380.06;5092810;28;20206;-69
2022/03/23 02:02:35;;;;;;;17.27;8.90;;;;;;;5.21;78.84;101381.69;5097659;28;20026;-70
2022/03/23 02:05:01;;;;;;;18.75;8.13;;;;;;;5.16;79.00;101386.00;5109123;28;20106;-70
2022/03/23 02:07:26;;;;;;;19.83;8.23;;;;;;;5.11;78.67;101377.16;5112448;28;20506;-70
2022/03/23 02:09:52;;;;;;;14.32;7.68;;;;;;;5.13;78.37;101382.47;5108858;28;20039;-70
2022/03/23 02:12:17;;;;;;;17.40;9.23;;;;;;;5.16;78.36;101378.09;5112295;28;20032;-70
2022/03/23 02:14:43;;;;;;;16.02;8.77;;;;;;;5.16;78.89;101377.22;5112441;28;20103;-70
2022/03/23 02:17:08;;;;;;;17.05;8.48;;;;;;;5.13;79.01;101361.34;5103486;28;20027;-70
2022/03/23 02:19:35;;;;;;;19.10;8.40;;;;;;;5.25;79.12;101378.19;5091396;28;20047;-70
2022/03/23 02:22:01;;;;;;;21.48;10.65;;;;;;;5.19;78.81;101372.84;5091332;28;20082;-70
2022/03/23 02:24:29;;;;;;;16.77;8.15;;;;;;;5.20;79.19;101374.66;5100577;28;20528;-70
2022/03/23 02:26:55;;;;;;;24.27;9.70;;;;;;;5.32;79.74;101374.75;5084990;28;20019;-70
2022/03/23 02:29:24;;;;;;;17.10;9.07;;;;;;;5.29;79.79;101373.81;5094051;28;20032;-70
2022/03/23 02:31:50;;;;;;;17.75;9.00;;;;;;;5.34;79.97;101372.13;5091352;28;20050;-69
2022/03/23 02:34:17;;;;;;;17.83;9.88;;;;;;;5.46;79.44;101366.97;5091277;28;20028;-70
2022/03/23 02:36:42;;;;;;;14.55;9.10;;;;;;;5.51;79.41;101372.28;5091769;28;20034;-70
2022/03/23 02:39:08;;;;;;;15.52;10.25;;;;;;;5.42;79.60;101364.31;5091522;28;20035;-70
2022/03/23 02:41:34;;;;;;;12.77;8.38;;;;;;;5.34;79.28;101367.75;5091461;28;20068;-70
2022/03/23 02:44:00;;;;;;;15.50;8.93;;;;;;;5.15;80.09;101365.81;5091310;28;20027;-70
2022/03/23 02:46:26;;;;;;;16.67;9.98;;;;;;;5.09;80.47;101375.41;5091190;28;20032;-70
2022/03/23 02:48:51;;;;;;;16.13;9.20;;;;;;;4.96;81.16;101368.19;5090484;28;20059;-70
2022/03/23 02:51:17;;;;;;;17.45;8.98;;;;;;;4.86;81.41;101369.84;5091184;28;20482;-70
2022/03/23 03:02:37;;;;;;;14.70;8.73;;;;;;;4.47;82.37;101381.63;5090923;28;20460;-70
2022/03/23 03:05:09;;;;;;;18.67;9.45;;;;;;;4.39;82.39;101365.72;5072981;28;20028;-70
2022/03/23 03:10:21;;;;;;;16.92;8.65;;;;;;;4.43;82.25;101375.41;5090214;28;20031;-70
2022/03/23 03:12:47;;;;;;;19.05;9.20;;;;;;;4.40;82.13;101369.25;5089874;28;20429;-70
2022/03/23 03:15:14;;;;;;;17.80;8.95;;;;;;;4.35;82.58;101361.25;5090942;28;20082;-70
2022/03/23 03:17:40;;;;;;;19.80;8.95;;;;;;;4.63;82.62;101389.75;5104259;28;20466;-70
2022/03/23 03:20:06;;;;;;;14.80;9.02;;;;;;;4.55;83.12;101383.50;5110212;28;20410;-70
2022/03/23 03:22:36;;;;;;;19.85;9.18;;;;;;;4.59;82.07;101390.59;5111037;28;20538;-70
2022/03/23 03:25:02;;;;;;;13.15;8.70;;;;;;;4.58;81.25;101373.00;5111077;28;20134;-70
2022/03/23 03:27:30;;;;;;;18.23;8.77;;;;;;;4.60;80.28;101389.72;5101603;28;20075;-70
2022/03/23 03:29:56;;;;;;;17.08;8.95;;;;;;;4.51;81.25;101393.97;5090084;28;20024;-70
2022/03/23 03:32:21;;;;;;;16.25;8.48;;;;;;;4.33;81.11;101399.88;5074758;28;20070;-70
2022/03/23 03:34:47;;;;;;;14.88;8.18;;;;;;;4.35;81.44;101403.41;5072297;28;20031;-70
2022/03/23 03:37:12;;;;;;;15.73;8.52;;;;;;;4.26;81.59;101403.28;5090611;28;20027;-70
2022/03/23 03:39:37;;;;;;;19.13;9.68;;;;;;;4.14;82.08;101408.34;5090365;28;20039;-70
2022/03/23 03:42:04;;;;;;;17.23;7.60;;;;;;;4.12;82.42;101407.44;5072440;28;20023;-70
2022/03/23 03:44:29;;;;;;;15.27;7.40;;;;;;;4.08;82.49;101410.91;5090222;28;20020;-69
2022/03/23 03:46:54;;;;;;;16.67;8.43;;;;;;;4.09;82.48;101399.50;5090571;28;20032;-70
2022/03/23 03:49:20;;;;;;;20.25;9.52;;;;;;;4.24;83.04;101415.53;5089682;28;20129;-70
2022/03/23 03:51:45;;;;;;;15.07;8.02;;;;;;;4.27;83.20;101426.13;5090918;28;20107;-70
2022/03/23 03:54:11;;;;;;;16.73;8.57;;;;;;;4.28;83.84;101425.28;5074333;28;20023;-70
2022/03/23 03:56:36;;;;;;;15.77;8.20;;;;;;;4.33;83.14;101405.16;5099723;28;20165;-70
2022/03/23 03:59:02;;;;;;;19.55;9.07;;;;;;;4.38;83.01;101431.56;5089093;28;20032;-70
2022/03/23 04:01:28;;;;;;;15.15;8.57;;;;;;;4.21;83.25;101407.59;5074467;28;20106;-70
2022/03/23 04:03:53;;;;;;;18.23;9.82;;;;;;;4.32;83.01;101426.16;5089861;28;20399;-70
2022/03/23 04:06:20;;;;;;;14.45;8.30;;;;;;;4.29;83.46;101428.75;5085403;28;20028;-70
2022/03/23 04:08:46;;;;;;;21.55;9.45;;;;;;;4.06;84.16;101423.16;5110435;28;20035;-70
2022/03/23 04:11:11;;;;;;;20.30;9.88;;;;;;;3.98;84.59;101419.50;5110548;28;20474;-70
2022/03/23 04:13:36;;;;;;;18.33;8.77;;;;;;;4.03;85.09;101441.53;5106937;28;20542;-70
2022/03/23 04:16:02;;;;;;;15.50;8.05;;;;;;;3.89;85.08;101422.88;5092271;28;20054;-69
2022/03/23 04:18:28;;;;;;;19.85;9.85;;;;;;;4.01;84.72;101440.63;5089991;28;20031;-69
2022/03/23 04:20:53;;;;;;;16.42;8.82;;;;;;;3.97;85.15;101441.41;5096909;28;20055;-69
2022/03/23 04:23:19;;;;;;;17.60;8.25;;;;;;;3.98;85.79;101444.09;5109929;28;20012;-69
2022/03/23 04:25:47;;;;;;;16.70;8.23;;;;;;;3.93;85.10;101447.50;5109140;28;20047;-69
2022/03/23 04:28:13;;;;;;;19.65;8.80;;;;;;;3.86;84.90;101437.72;5076113;28;20721;-69
2022/03/23 04:30:39;;;;;;;21.10;8.98;;;;;;;3.67;85.05;101430.38;5091074;28;20012;-69
2022/03/23 04:33:04;;;;;;;14.98;8.93;;;;;;;3.71;85.76;101445.34;5090631;28;20035;-69
2022/03/23 04:35:30;;;;;;;14.27;7.90;;;;;;;3.81;85.06;101444.66;5071428;28;20028;-70
2022/03/23 04:37:56;;;;;;;14.88;7.95;;;;;;;3.68;84.01;101453.19;5092695;28;20013;-69
2022/03/23 04:40:22;;;;;;;13.60;8.23;;;;;;;3.66;84.67;101449.63;5089379;28;20032;-69
2022/03/23 04:42:49;;;;;;;16.98;8.40;;;;;;;3.75;84.70;101455.97;5089979;28;20035;-69
2022/03/23 04:45:14;;;;;;;11.05;7.55;;;;;;;3.79;84.91;101442.00;5089682;28;20636;-69
2022/03/23 04:47:42;;;;;;;22.08;9.35;;;;;;;3.79;85.26;101451.63;5089978;28;20020;-69
2022/03/23 04:50:09;;;;;;;18.63;9.73;;;;;;;3.74;85.77;101440.16;5088784;28;20093;-69
2022/03/23 04:52:36;;;;;;;18.17;8.95;;;;;;;4.08;85.67;101453.03;5088636;28;20039;-69
2022/03/23 04:55:03;;;;;;;12.93;8.15;;;;;;;4.02;85.12;101450.28;5089486;28;20028;-68
2022/03/23 04:57:29;;;;;;;22.65;9.10;;;;;;;4.01;85.20;101454.69;5089959;28;20028;-69
2022/03/23 04:59:54;;;;;;;19.67;10.10;;;;;;;4.07;85.22;101453.88;5089545;28;20100;-69
2022/03/23 05:02:20;;;;;;;19.42;8.60;;;;;;;3.91;84.63;101455.38;5089342;28;20028;-69
2022/03/23 05:04:46;;;;;;;18.60;10.32;;;;;;;3.87;84.25;101448.28;5071125;28;20028;-69
2022/03/23 05:07:12;;;;;;;16.15;9.30;;;;;;;3.83;84.73;101442.94;5089951;28;20031;-69
2022/03/23 05:09:39;;;;;;;20.85;10.80;;;;;;;3.95;86.04;101469.47;5071576;28;20518;-69
2022/03/23 05:12:05;;;;;;;19.80;9.90;;;;;;;3.99;85.25;101463.38;5093194;28;20039;-69
2022/03/23 05:14:30;;;;;;;25.27;11.93;;;;;;;4.01;85.59;101464.31;5074803;28;20035;-69
2022/03/23 05:16:55;;;;;;;18.35;9.20;;;;;;;4.05;85.52;101461.75;5098895;28;20016;-69
2022/03/23 05:19:21;;;;;;;16.33;8.98;;;;;;;4.00;85.09;101465.19;5093857;28;20020;-69
2022/03/23 05:21:47;;;;;;;22.80;9.48;;;;;;;3.89;85.60;101470.25;5113515;28;20134;-69
2022/03/23 05:24:12;;;;;;;17.48;8.77;;;;;;;3.95;84.82;101474.75;5113325;28;20038;-69
2022/03/23 05:26:38;;;;;;;15.38;8.55;;;;;;;3.99;84.06;101480.09;5110895;28;20028;-69
2022/03/23 05:29:03;;;;;;;16.77;9.15;;;;;;;3.83;83.66;101485.06;5092535;28;20024;-69
2022/03/23 05:31:29;;;;;;;12.98;8.02;;;;;;;3.61;84.15;101472.34;5092688;28;20043;-69
2022/03/23 05:33:54;;;;;;;15.43;8.13;;;;;;;3.65;84.12;101479.44;5095122;28;20483;-69
2022/03/23 05:36:20;;;;;;;15.18;9.45;;;;;;;3.59;84.96;101469.69;5092740;28;20391;-69
2022/03/23 05:38:45;;;;;;;16.80;9.05;;;;;;;3.59;84.98;101479.34;5092994;28;20031;-69
2022/03/23 05:41:11;;;;;;;16.15;7.70;;;;;;;3.59;85.65;101488.09;5092977;28;20028;-69
2022/03/23 05:43:36;;;;;;;16.13;8.70;;;;;;;3.81;86.10;101486.75;5092591;28;20024;-69
2022/03/23 05:46:02;;;;;;;14.30;8.50;;;;;;;3.88;85.06;101476.38;5074280;28;20028;-69
2022/03/23 05:48:27;;;;;;;21.02;8.32;;;;;;;3.84;84.29;101471.91;5092325;28;20522;-69
2022/03/23 05:50:53;;;;;;;13.85;8.35;;;;;;;3.88;84.71;101493.91;5094732;28;20100;-69
2022/03/23 05:53:18;;;;;;;23.50;11.30;;;;;;;3.92;84.81;101503.66;5091836;28;20032;-69
2022/03/23 05:55:44;;;;;;;14.93;9.02;;;;;;;4.01;85.46;101502.06;5091877;28;20046;-69
2022/03/23 05:58:09;;;;;;;19.10;8.93;;;;;;;4.07;85.78;101503.88;5092627;28;20031;-69
2022/03/23 06:00:35;;;;;;;14.25;8.10;;;;;;;4.18;84.73;101497.09;5094293;28;20073;-69
2022/03/23 06:03:00;;;;;;;15.52;9.27;;;;;;;4.07;85.04;101468.81;5101157;28;20061;-69
2022/03/23 06:05:26;;;;;;;19.13;8.82;;;;;;;4.34;85.65;101501.72;5112487;28;20027;-69
2022/03/23 06:07:51;;;;;;;15.65;9.02;;;;;;;4.65;86.17;101505.72;5094123;28;20023;-69
2022/03/23 06:10:17;;;;;;;17.08;9.40;;;;;;;5.09;85.67;101487.00;5105896;28;20076;-69
2022/03/23 06:12:42;;;;;;;17.35;9.65;;;;;;;5.77;82.30;101490.44;5112346;28;20035;-69
2022/03/23 06:15:10;;;;;;;17.77;10.45;;;;;;;6.60;79.50;101493.84;5094143;28;20027;-69
2022/03/23 06:17:36;;;;;;;19.52;10.20;;;;;;;7.76;74.74;101500.56;5099565;28;20027;-69
2022/03/23 06:20:02;;;;;;;25.10;11.05;;;;;;;8.80;67.40;101484.72;5091410;28;21039;-69
2022/03/23 06:22:28;;;;;;;22.40;10.63;;;;;;;10.18;61.32;101499.13;5091352;28;20117;-69
2022/03/23 06:24:54;;;;;;;22.00;9.45;;;;;;;11.37;54.88;101497.94;5103985;28;20027;-70
2022/03/23 06:27:19;;;;;;;16.10;9.80;;;;;;;12.01;52.29;101505.97;5103782;28;20490;-69
2022/03/23 06:29:45;;;;;;;17.67;9.43;;;;;;;12.72;49.94;101496.81;5092479;28;20028;-70
2022/03/23 06:32:10;;;;;;;22.33;9.25;;;;;;;13.48;48.43;101498.91;5093048;28;20028;-70
2022/03/23 06:34:36;;;;;;;16.98;8.68;;;;;;;13.38;47.88;101508.06;5094164;28;20027;-70
2022/03/23 06:37:01;;;;;;;17.40;10.02;;;;;;;13.88;47.55;101508.75;5091751;28;20031;-70
2022/03/23 06:39:29;;;;;;;21.40;9.80;;;;;;;14.35;46.19;101510.34;5091243;28;20678;-69
2022/03/23 06:41:55;;;;;;;26.58;10.63;;;;;;;15.13;44.42;101508.28;5090521;28;20027;-70
2022/03/23 06:44:20;;;;;;;19.65;10.77;;;;;;;15.96;43.09;101505.88;5091471;28;20425;-70
2022/03/23 06:46:45;;;;;;;23.02;10.52;;;;;;;16.45;41.09;101515.91;5091055;28;20032;-70
2022/03/23 06:49:12;;;;;;;22.60;12.32;;;;;;;16.85;41.25;101521.75;5073122;28;20490;-69
2022/03/23 06:51:37;;;;;;;23.48;10.73;;;;;;;17.67;39.30;101525.06;5091067;28;20016;-70
2022/03/23 06:54:03;;;;;;;19.80;10.57;;;;;;;18.19;37.38;101517.59;5091294;28;20024;-70
2022/03/23 06:56:29;;;;;;;17.15;10.18;;;;;;;18.67;36.66;101524.63;5091236;28;20032;-69
2022/03/23 06:58:55;;;;;;;18.52;10.63;;;;;;;18.62;36.23;101519.44;5091543;28;20428;-70
2022/03/23 07:01:21;;;;;;;22.92;13.20;;;;;;;18.78;35.87;101534.03;5090551;28;20028;-70
2022/03/23 07:03:48;;;;;;;28.65;14.65;;;;;;;18.93;36.10;101524.44;5090994;28;20027;-70
2022/03/23 07:06:15;;;;;;;29.60;13.52;;;;;;;18.93;36.53;101530.69;5089630;28;20027;-70
2022/03/23 07:11:25;;;;;;;22.73;12.48;;;;;;;19.35;36.43;101518.06;5090890;28;20473;-70
2022/03/23 07:13:50;;;;;;;28.00;13.05;;;;;;;19.48;36.00;101523.78;5090695;28;20028;-70
2022/03/23 07:16:16;;;;;;;24.88;12.18;;;;;;;19.34;36.49;101519.00;5092045;28;20032;-70
2022/03/23 07:18:42;;;;;;;17.85;10.75;;;;;;;19.59;36.38;101530.44;5111321;28;20034;-70
2022/03/23 07:21:07;;;;;;;17.88;10.57;;;;;;;19.57;36.40;101526.94;5110377;28;20108;-70
2022/03/23 07:23:34;;;;;;;19.38;9.25;;;;;;;19.56;36.51;101535.09;5099597;28;20426;-70
2022/03/23 07:26:00;;;;;;;22.50;10.63;;;;;;;19.96;36.18;101539.53;5092614;28;20378;-70
2022/03/23 07:28:26;;;;;;;16.67;9.27;;;;;;;20.34;35.05;101536.81;5089129;28;20020;-70
2022/03/23 07:30:52;;;;;;;17.95;9.35;;;;;;;20.34;35.23;101533.22;5070150;28;20012;-70
2022/03/23 07:33:17;;;;;;;24.17;10.00;;;;;;;20.56;34.85;101539.34;5094067;28;20055;-70
2022/03/23 07:35:43;;;;;;;20.95;9.75;;;;;;;20.69;34.38;101532.38;5103070;28;20110;-70
2022/03/23 07:38:08;;;;;;;20.95;9.45;;;;;;;20.25;35.38;101531.84;5081025;28;20028;-70
2022/03/23 07:40:34;;;;;;;22.65;9.57;;;;;;;20.51;35.10;101544.94;5107343;28;20463;-70
2022/03/23 07:42:59;;;;;;;21.25;9.63;;;;;;;20.63;34.86;101541.66;5100002;28;20039;-70
2022/03/23 07:45:25;;;;;;;17.30;9.80;;;;;;;20.34;34.01;101539.53;5072210;28;20480;-70
2022/03/23 07:47:50;;;;;;;17.63;9.70;;;;;;;19.68;35.92;101550.75;5072154;28;20024;-70
2022/03/23 07:50:16;;;;;;;18.95;9.57;;;;;;;19.80;35.94;101544.81;5092285;28;20031;-70
2022/03/23 07:52:44;;;;;;;20.80;9.48;;;;;;;19.92;35.64;101544.22;5090413;28;20035;-70
2022/03/23 07:55:09;;;;;;;15.10;8.55;;;;;;;19.76;35.62;101553.97;5090417;28;20020;-70
2022/03/23 07:57:35;;;;;;;20.85;9.63;;;;;;;20.00;35.83;101541.16;5089514;28;20042;-70
2022/03/23 08:00:00;;;;;;;15.30;8.73;;;;;;;20.04;35.02;101558.97;5070431;28;20012;-70
2022/03/23 08:02:26;;;;;;;17.10;10.02;;;;;;;20.29;35.55;101555.06;5093686;28;20057;-70
2022/03/23 08:04:52;;;;;;;16.17;9.10;;;;;;;19.77;35.61;101557.56;5090341;28;20032;-70
2022/03/23 08:07:18;;;;;;;15.25;8.80;;;;;;;19.11;37.46;101548.78;5098208;28;20402;-70
2022/03/23 08:09:43;;;;;;;16.95;8.63;;;;;;;19.11;36.12;101553.31;5100198;28;20024;-70
2022/03/23 08:12:09;;;;;;;14.02;8.63;;;;;;;18.86;37.15;101549.91;5098499;28;20500;-70
2022/03/23 08:14:35;;;;;;;14.77;9.02;;;;;;;18.93;37.14;101556.78;5091474;28;20035;-70
2022/03/23 08:17:00;;;;;;;14.60;9.05;;;;;;;18.70;37.41;101543.41;5098467;28;20026;-70
2022/03/23 08:19:26;;;;;;;16.15;8.45;;;;;;;18.74;38.01;101559.38;5103012;28;20484;-70
2022/03/23 08:21:52;;;;;;;17.00;8.20;;;;;;;19.13;36.45;101559.50;5089502;28;20044;-70
2022/03/23 08:24:18;;;;;;;15.55;8.02;;;;;;;19.13;37.70;101556.78;5092253;28;20046;-70
2022/03/23 08:26:44;;;;;;;19.58;10.27;;;;;;;19.55;36.29;101552.25;5092326;28;20028;-70
2022/03/23 08:29:10;;;;;;;15.63;8.88;;;;;;;19.39;34.77;101546.66;5079744;28;20032;-70
2022/03/23 08:31:36;;;;;;;15.80;8.80;;;;;;;19.17;37.00;101556.63;5104402;28;20437;-70
2022/03/23 08:34:02;;;;;;;14.98;7.95;;;;;;;19.42;35.53;101542.97;5095508;28;20064;-70
2022/03/23 08:36:29;;;;;;;13.98;8.50;;;;;;;19.70;34.30;101554.28;5104113;28;20077;-70
2022/03/23 08:38:54;;;;;;;14.68;8.30;;;;;;;19.80;35.35;101550.19;5101547;28;20048;-69
2022/03/23 08:41:20;;;;;;;15.55;8.98;;;;;;;19.83;34.84;101552.75;5104418;28;20513;-69
2022/03/23 08:43:45;;;;;;;17.05;9.30;;;;;;;19.50;34.26;101547.03;5104360;28;20024;-69
2022/03/23 08:46:14;;;;;;;12.85;8.55;;;;;;;19.28;35.58;101540.84;5105278;28;20031;-69
2022/03/23 08:48:40;;;;;;;16.38;9.02;;;;;;;19.68;36.15;101553.47;5113878;28;20065;-69
2022/03/23 08:51:06;;;;;;;16.33;8.25;;;;;;;19.70;33.99;101542.59;5108707;28;20024;-69
2022/03/23 08:53:32;;;;;;;13.65;7.82;;;;;;;19.65;34.75;101540.94;5094355;28;20394;-69
2022/03/23 08:55:59;;;;;;;16.25;9.05;;;;;;;19.88;33.89;101539.91;5103812;28;20062;-69
2022/03/23 08:58:25;;;;;;;13.85;8.57;;;;;;;19.95;33.21;101538.66;5093343;28;20376;-69
2022/03/23 09:00:50;;;;;;;16.17;9.52;;;;;;;20.04;32.91;101546.34;5082709;28;20027;-69
2022/03/23 09:03:16;;;;;;;16.88;8.70;;;;;;;19.85;34.50;101537.34;5113451;28;20479;-69
2022/03/23 09:05:41;;;;;;;16.65;8.52;;;;;;;20.33;34.89;101536.88;5113738;28;20031;-69
2022/03/23 09:08:08;;;;;;;15.88;9.25;;;;;;;20.34;33.49;101539.53;5112495;28;20047;-70
2022/03/23 09:10:34;;;;;;;15.32;8.68;;;;;;;20.00;33.12;101541.16;5111675;28;20031;-69
2022/03/23 09:13:00;;;;;;;14.88;8.70;;;;;;;19.65;33.08;101534.69;5113212;28;20030;-69
2022/03/23 09:15:26;;;;;;;17.50;9.27;;;;;;;20.01;34.04;101533.00;5112767;28;20356;-69
2022/03/23 09:17:52;;;;;;;15.88;8.65;;;;;;;20.15;35.21;101519.72;5096448;28;20024;-69
2022/03/23 09:20:18;;;;;;;14.27;8.40;;;;;;;20.56;33.73;101525.81;5092235;28;20044;-69
2022/03/23 09:22:44;;;;;;;14.93;8.55;;;;;;;21.24;34.60;101514.19;5103244;28;20360;-70
2022/03/23 09:25:12;;;;;;;20.60;8.95;;;;;;;21.71;33.00;101528.78;5101430;28;20114;-70
2022/03/23 09:27:42;;;;;;;15.38;8.63;;;;;;;21.42;33.25;101521.34;5101935;28;20031;-70
2022/03/23 09:30:08;;;;;;;14.93;8.73;;;;;;;21.28;33.32;101515.78;5099802;28;20434;-70
2022/03/23 09:32:34;;;;;;;15.93;8.40;;;;;;;21.35;32.84;101522.63;5101854;28;20031;-70
2022/03/23 09:35:00;;;;;;;17.65;9.05;;;;;;;21.75;32.27;101514.09;5112637;28;20425;-70
2022/03/23 09:40:10;;;;;;;22.88;9.68;;;;;;;22.53;31.98;101519.66;5112894;28;20054;-69
2022/03/23 09:42:39;;;;;;;14.57;8.18;;;;;;;22.92;31.63;101512.75;5111477;28;20471;-69
2022/03/23 09:45:05;;;;;;;18.13;9.02;;;;;;;22.81;29.57;101517.94;5112822;28;20160;-69
2022/03/23 09:47:30;;;;;;;20.85;9.70;;;;;;;22.71;29.34;101514.03;5112686;28;20118;-69
2022/03/23 09:49:56;;;;;;;20.90;11.27;;;;;;;22.68;27.75;101506.06;5094179;28;20399;-69
2022/03/23 09:52:22;;;;;;;18.60;10.50;;;;;;;22.90;27.48;101511.97;5112450;28;20059;-69
2022/03/23 09:54:47;;;;;;;19.23;10.15;;;;;;;23.22;29.11;101508.19;5112732;28;20028;-69
2022/03/23 09:57:13;;;;;;;18.35;9.20;;;;;;;23.20;28.46;101504.69;5081958;28;20115;-69
2022/03/23 09:59:40;;;;;;;15.65;10.18;;;;;;;23.08;28.47;101493.72;5092249;28;20081;-70
2022/03/23 10:02:05;;;;;;;19.52;9.75;;;;;;;23.37;28.68;101507.28;5093756;28;20168;-69
2022/03/23 10:04:49;;;;;;;20.55;9.68;;;;;;;23.79;28.53;101500.13;5092356;28;20682;-70
2022/03/23 10:07:22;;;;;;;;;;;;;;;24.00;26.83;101501.50;5091622;28;20406;-69
2022/03/23 10:10:07;;;;;;;16.00;9.77;;;;;;;24.27;28.28;101500.56;5104579;28;19908;-69
2022/03/23 10:12:51;;;;;;;19.48;10.90;;;;;;;24.89;28.03;101488.25;5112246;28;20035;-69
2022/03/23 10:15:38;;;;;;;18.00;9.75;;;;;;;24.92;26.33;101492.59;5112107;28;20027;-69
2022/03/23 10:18:09;;;;;;;18.45;9.82;;;;;;;25.02;28.59;101478.25;5095387;28;20027;-69
2022/03/23 10:20:35;;;;;;;17.70;10.70;;;;;;;25.01;27.65;101481.94;4857953;28;20519;-69
2022/03/23 10:23:01;;;;;;;18.08;9.38;;;;;;;25.25;27.41;101469.34;5073134;28;20571;-69
2022/03/23 10:25:27;;;;;;;19.30;10.65;;;;;;;24.11;28.38;101488.06;5091926;28;20038;-69
2022/03/23 10:27:56;;;;;;;20.98;10.75;;;;;;;24.47;28.00;101481.09;5091908;28;20031;-69
2022/03/23 10:30:36;;;;;;;21.23;10.45;;;;;;;24.96;27.05;101475.06;5103469;28;20023;-69
2022/03/23 10:33:02;;;;;;;19.80;9.77;;;;;;;25.29;27.10;101481.75;5107450;28;20033;-69
2022/03/23 10:35:36;;;;;;;18.23;10.30;;;;;;;25.78;26.39;101471.84;5112067;28;20020;-69
2022/03/23 10:38:15;;;;;;;22.48;10.30;;;;;;;26.29;27.29;101475.38;5108498;28;20019;-69
2022/03/23 10:40:43;;;;;;;19.27;10.45;;;;;;;26.08;26.17;101476.94;5111690;28;20383;-69
2022/03/23 10:43:18;;;;;;;18.55;9.93;;;;;;;26.00;26.64;101478.47;5111498;28;20028;-69
2022/03/23 10:45:44;;;;;;;23.85;10.25;;;;;;;25.87;26.06;101473.03;5111781;28;20035;-69
2022/03/23 10:48:13;;;;;;;16.48;10.07;;;;;;;25.91;27.51;101469.97;5111943;28;20034;-69
2022/03/23 10:50:50;;;;;;;18.67;10.80;;;;;;;25.91;26.67;101472.69;5111463;28;20556;-69
2022/03/23 10:53:15;;;;;;;18.77;10.60;;;;;;;26.12;26.53;101472.13;5092791;28;20024;-70
2022/03/23 10:55:48;;;;;;;18.35;10.27;;;;;;;26.27;26.78;101471.00;5111522;28;20069;-70
2022/03/23 10:58:13;;;;;;;18.00;10.90;;;;;;;26.00;25.22;101468.44;5095180;28;20024;-69
2022/03/23 11:00:40;;;;;;;20.40;9.93;;;;;;;25.96;25.58;101465.06;5091222;28;20365;-69
2022/03/23 11:03:08;;;;;;;21.45;10.63;;;;;;;26.18;27.24;101458.06;5090886;28;20024;-69
2022/03/23 11:05:41;;;;;;;22.60;12.35;;;;;;;26.29;26.27;101459.00;5089551;28;20383;-69
2022/03/23 11:08:19;;;;;;;23.88;11.43;;;;;;;26.44;25.13;101463.28;5090121;28;20116;-69
2022/03/23 11:16:24;;;;;;;21.45;10.75;;;;;;;26.53;25.14;101454.41;5092585;28;20077;-69
2022/03/23 11:18:56;;;;;;;18.17;11.02;;;;;;;26.74;23.50;101454.66;5110592;28;20043;-69
2022/03/23 11:21:22;;;;;;;18.77;11.45;;;;;;;26.70;24.63;101442.25;5110657;28;20047;-69
2022/03/23 11:23:47;;;;;;;19.83;10.63;;;;;;;27.06;24.41;101447.59;5110964;28;20110;-69
2022/03/23 11:26:13;;;;;;;20.20;11.20;;;;;;;26.93;25.22;101441.34;5092420;28;20020;-69
2022/03/23 11:28:46;;;;;;;20.42;10.38;;;;;;;27.01;25.50;101436.13;5091365;28;20463;-69
2022/03/23 11:31:16;;;;;;;19.13;11.32;;;;;;;26.53;24.37;101428.97;5090339;28;20040;-69
2022/03/23 11:33:45;;;;;;;20.67;10.98;;;;;;;26.74;26.52;101427.34;5092912;28;20483;-69
2022/03/23 11:36:12;;;;;;;19.10;11.32;;;;;;;26.67;24.56;101426.09;5090459;28;20026;-69
2022/03/23 11:38:38;;;;;;;24.83;10.75;;;;;;;26.94;25.28;101421.22;5090754;28;20102;-69